Time;durP1;ratioP1;P1;durP2;ratioP2;P2;SDS_P1;SDS_P2;PMS_P1;PMS_P2;Temp;Humidity;BMP_temperature;BMP_pressure;BME280_temperature;BME280_humidity;BME280_pressure;Samples;Min_cycle;Max_cycle;Signal;HPM_P1;HPM_P2
2021/01/25 06:04:20;;;;;;;3.72;2.60;;;;;;;;;;5191052;23;19922;-68
2021/01/25 06:06:48;;;;;;;4.28;2.72;;;;;;;;;;4977927;28;20512;-67
2021/01/25 06:09:22;;;;;;;4.18;2.47;;;;;;;;;;4977820;28;20085;-67
2021/01/25 06:11:48;;;;;;;4.13;2.40;;;;;;;;;;4977724;28;20030;-67
2021/01/25 06:14:22;;;;;;;3.88;2.35;;;;;;;;;;4977394;28;20501;-68
2021/01/25 06:16:52;;;;;;;4.40;2.60;;;;;;;;;;4977335;28;20058;-67
2021/01/25 06:19:20;;;;;;;3.25;2.50;;;;;;;;;;4976998;28;20058;-68
2021/01/25 06:21:47;;;;;;;4.63;3.10;;;;;;;;;;4977569;28;20027;-70
2021/01/25 06:24:14;;;;;;;3.35;2.70;;;;;;;;;;4971161;28;20027;-66
2021/01/25 06:26:41;;;;;;;5.75;4.40;;;;;;;;;;4965028;28;20109;-66
2021/01/25 06:29:08;;;;;;;6.78;4.40;;;;;;;;;;4966993;28;20035;-66
2021/01/25 06:31:35;;;;;;;4.63;3.35;;;;;;;;;;4966468;28;20082;-66
2021/01/25 06:34:05;;;;;;;4.82;3.10;;;;;;;;;;4965334;28;20348;-65
2021/01/25 06:36:32;;;;;;;3.75;2.70;;;;;;;;;;4966819;28;20018;-67
2021/01/25 06:38:59;;;;;;;4.10;3.25;;;;;;;;;;4964685;28;20061;-67
2021/01/25 06:41:25;;;;;;;4.63;3.20;;;;;;;;;;4967259;28;20484;-67
2021/01/25 06:43:51;;;;;;;3.97;3.00;;;;;;;;;;4965969;28;20031;-66
2021/01/25 06:46:20;;;;;;;8.82;6.03;;;;;;;;;;4967465;28;20378;-67
2021/01/25 06:48:48;;;;;;;5.03;3.60;;;;;;;;;;4976735;28;20497;-66
2021/01/25 06:51:15;;;;;;;3.47;2.42;;;;;;;;;;4977390;28;20123;-67
2021/01/25 06:53:41;;;;;;;3.60;2.33;;;;;;;;;;4977092;28;20046;-67
2021/01/25 06:56:07;;;;;;;10.82;6.80;;;;;;;;;;4978031;28;20019;-68
2021/01/25 06:58:36;;;;;;;4.45;2.75;;;;;;;;;;4987198;28;20094;-69
2021/01/25 07:01:09;;;;;;;4.00;2.83;;;;;;;;;;4976581;28;20031;-69
2021/01/25 07:04:04;;;;;;;4.43;3.30;;;;;;;;;;4987883;28;20023;-67
2021/01/25 07:06:43;;;;;;;6.32;4.78;;;;;;;;;;4897827;29;20162;-66
2021/01/25 07:09:09;;;;;;;7.75;4.93;;;;;;;;;;4898255;29;20033;-65
2021/01/25 07:11:36;;;;;;;6.85;3.85;;;;;;;;;;4884690;29;20388;-65
2021/01/25 07:14:02;;;;;;;5.35;3.58;;;;;;;;;;4878653;29;20509;-65
2021/01/25 07:16:29;;;;;;;4.75;3.42;;;;;;;;;;4881739;29;20048;-66
2021/01/25 07:18:55;;;;;;;5.20;3.47;;;;;;;;;;4882688;29;20041;-66
2021/01/25 07:21:22;;;;;;;6.07;3.72;;;;;;;;;;4877851;29;20035;-66
2021/01/25 07:23:49;;;;;;;4.80;3.53;;;;;;;;;;4876251;29;20036;-67
2021/01/25 07:26:16;;;;;;;5.05;3.88;;;;;;;;;;4882219;29;20043;-66
2021/01/25 07:28:42;;;;;;;6.10;3.88;;;;;;;;;;4897496;29;20041;-67
2021/01/25 07:31:10;;;;;;;4.97;3.83;;;;;;;;;;4897811;29;20047;-67
2021/01/25 07:33:36;;;;;;;7.25;4.45;;;;;;;;;;4897714;29;20029;-68
2021/01/25 07:36:02;;;;;;;7.25;4.30;;;;;;;;;;4897439;29;20500;-68
2021/01/25 07:38:29;;;;;;;7.30;4.20;;;;;;;;;;4897068;29;20115;-67
2021/01/25 07:40:58;;;;;;;7.25;4.30;;;;;;;;;;4897674;29;20462;-67
2021/01/25 07:43:26;;;;;;;6.97;4.28;;;;;;;;;;4968090;28;20041;-67
2021/01/25 07:45:52;;;;;;;6.70;4.47;;;;;;;;;;4995451;28;20080;-67
2021/01/25 07:48:18;;;;;;;6.75;4.47;;;;;;;;;;4995514;28;20035;-67
2021/01/25 07:50:57;;;;;;;7.70;4.65;;;;;;;;;;4995059;28;20023;-68
2021/01/25 07:53:24;;;;;;;6.60;4.68;;;;;;;;;;4968696;28;20109;-65
2021/01/25 07:55:50;;;;;;;6.93;4.78;;;;;;;;;;4983278;28;20050;-65
2021/01/25 07:58:17;;;;;;;7.03;4.60;;;;;;;;;;4975569;28;20026;-65
2021/01/25 08:00:43;;;;;;;6.40;4.38;;;;;;;;;;4975731;28;20481;-66
2021/01/25 08:03:28;;;;;;;7.90;4.97;;;;;;;;;;4975585;28;20035;-68
2021/01/25 08:05:55;;;;;;;7.63;4.47;;;;;;;;;;4975328;28;20050;-64
2021/01/25 08:08:22;;;;;;;6.70;4.38;;;;;;;;;;4975677;28;20390;-65
2021/01/25 08:10:49;;;;;;;6.80;4.32;;;;;;;;;;4975417;28;20054;-65
2021/01/25 08:13:18;;;;;;;6.25;4.30;;;;;;;;;;4975394;28;20422;-66
2021/01/25 08:15:51;;;;;;;8.55;4.90;;;;;;;;;;4975615;28;20031;-64
2021/01/25 08:18:19;;;;;;;8.48;5.20;;;;;;;;;;4975379;28;20027;-65
2021/01/25 08:20:45;;;;;;;7.60;5.07;;;;;;;;;;4975440;28;20022;-64
2021/01/25 08:23:19;;;;;;;7.38;4.65;;;;;;;;;;4979657;28;20077;-67
2021/01/25 08:25:52;;;;;;;10.48;5.82;;;;;;;;;;4994661;28;20026;-66
2021/01/25 08:28:23;;;;;;;10.65;5.75;;;;;;;;;;4994428;28;20034;-65
2021/01/25 08:30:53;;;;;;;8.25;5.20;;;;;;;;;;4977568;28;20409;-66
2021/01/25 08:33:27;;;;;;;8.95;5.25;;;;;;;;;;4994739;28;20477;-65
2021/01/25 08:35:55;;;;;;;9.70;5.35;;;;;;;;;;4994852;28;20362;-66
2021/01/25 08:38:32;;;;;;;8.20;4.78;;;;;;;;;;4985005;28;20034;-66
2021/01/25 08:40:59;;;;;;;8.68;5.07;;;;;;;;;;4973177;28;20506;-66
2021/01/25 08:43:28;;;;;;;8.35;5.22;;;;;;;;;;4982697;28;20420;-66
2021/01/25 08:45:56;;;;;;;8.05;4.18;;;;;;;;;;4955017;29;20082;-66
2021/01/25 08:48:33;;;;;;;5.80;3.63;;;;;;;;;;4953389;28;20059;-65
2021/01/25 08:51:10;;;;;;;7.03;4.32;;;;;;;;;;4972326;28;20098;-66
2021/01/25 08:53:36;;;;;;;7.50;4.03;;;;;;;;;;4972873;28;20027;-64
2021/01/25 08:56:11;;;;;;;6.03;3.88;;;;;;;;;;4974707;28;20054;-65
2021/01/25 08:58:37;;;;;;;6.72;3.42;;;;;;;;;;4974517;28;20030;-64
2021/01/25 09:01:12;;;;;;;9.18;4.32;;;;;;;;;;4974764;28;20474;-66
2021/01/25 09:03:38;;;;;;;5.35;3.45;;;;;;;;;;4974796;28;20031;-65
2021/01/25 09:06:05;;;;;;;6.85;4.00;;;;;;;;;;4974440;28;20039;-65
2021/01/25 09:08:31;;;;;;;7.80;3.80;;;;;;;;;;4975060;28;20058;-65
2021/01/25 09:10:58;;;;;;;6.50;3.55;;;;;;;;;;4974793;28;20018;-65
2021/01/25 09:13:24;;;;;;;6.38;3.45;;;;;;;;;;4974428;28;20023;-66
2021/01/25 09:15:50;;;;;;;5.40;3.38;;;;;;;;;;4974780;28;20037;-66
2021/01/25 09:18:16;;;;;;;4.47;2.92;;;;;;;;;;4974324;28;20110;-65
2021/01/25 09:20:42;;;;;;;5.22;3.33;;;;;;;;;;4974109;28;20391;-66
2021/01/25 09:23:09;;;;;;;6.70;3.35;;;;;;;;;;4974635;28;20022;-69
2021/01/25 09:25:35;;;;;;;8.15;3.25;;;;;;;;;;4974170;28;20359;-66
2021/01/25 09:28:01;;;;;;;6.22;3.40;;;;;;;;;;4973930;28;20059;-66
2021/01/25 09:30:28;;;;;;;8.02;3.80;;;;;;;;;;4974494;28;20026;-65
2021/01/25 09:32:54;;;;;;;6.47;3.53;;;;;;;;;;4974614;28;20033;-65
2021/01/25 09:35:22;;;;;;;5.57;2.90;;;;;;;;;;4973896;28;20478;-66
2021/01/25 09:37:48;;;;;;;9.75;3.35;;;;;;;;;;4974710;28;20038;-64
2021/01/25 09:40:14;;;;;;;5.32;2.90;;;;;;;;;;4974256;28;20396;-65
2021/01/25 09:42:40;;;;;;;8.55;3.72;;;;;;;;;;4973780;28;20019;-65
2021/01/25 09:45:07;;;;;;;5.25;2.95;;;;;;;;;;4974365;28;20019;-65
2021/01/25 09:47:33;;;;;;;6.30;3.38;;;;;;;;;;4974016;28;20027;-66
2021/01/25 09:49:59;;;;;;;6.32;2.80;;;;;;;;;;4974398;28;20179;-64
2021/01/25 09:52:26;;;;;;;4.63;2.63;;;;;;;;;;4973985;28;20023;-67
2021/01/25 09:54:52;;;;;;;4.95;2.47;;;;;;;;;;4974094;28;20366;-67
2021/01/25 09:57:18;;;;;;;4.80;2.72;;;;;;;;;;4972928;28;20494;-66
2021/01/25 09:59:44;;;;;;;5.80;3.05;;;;;;;;;;4972896;28;20034;-66
2021/01/25 10:02:10;;;;;;;5.35;3.15;;;;;;;;;;4975304;28;20033;-65
2021/01/25 10:04:36;;;;;;;5.00;2.70;;;;;;;;;;4975929;28;20043;-66
2021/01/25 10:07:02;;;;;;;4.57;2.40;;;;;;;;;;4975501;28;20202;-66
2021/01/25 10:09:30;;;;;;;5.53;2.13;;;;;;;;;;4975469;28;20106;-66
2021/01/25 10:11:56;;;;;;;5.22;2.03;;;;;;;;;;4979238;28;20030;-65
2021/01/25 10:14:22;;;;;;;4.22;2.60;;;;;;;;;;4976376;28;20106;-66
2021/01/25 10:16:48;;;;;;;4.75;2.88;;;;;;;;;;4978317;28;20023;-66
2021/01/25 10:19:14;;;;;;;6.90;2.60;;;;;;;;;;4986573;28;20115;-66
2021/01/25 10:21:40;;;;;;;4.75;2.65;;;;;;;;;;4984601;28;20398;-65
2021/01/25 10:24:07;;;;;;;4.65;2.92;;;;;;;;;;4987432;28;20022;-65
2021/01/25 10:26:33;;;;;;;5.88;2.92;;;;;;;;;;4986361;28;20038;-64
2021/01/25 10:28:59;;;;;;;6.22;3.35;;;;;;;;;;4990422;28;20109;-64
2021/01/25 10:31:25;;;;;;;3.85;2.35;;;;;;;;;;4987743;28;20018;-64
2021/01/25 10:33:51;;;;;;;4.60;2.30;;;;;;;;;;4985378;28;20029;-66
2021/01/25 10:36:17;;;;;;;3.33;2.38;;;;;;;;;;4989955;28;20034;-64
2021/01/25 10:38:44;;;;;;;4.32;2.20;;;;;;;;;;4990399;28;20042;-66
2021/01/25 10:41:11;;;;;;;4.38;2.30;;;;;;;;;;4996810;28;20018;-66
2021/01/25 10:43:39;;;;;;;4.45;2.67;;;;;;;;;;4996473;28;20029;-64
2021/01/25 10:46:05;;;;;;;4.18;2.38;;;;;;;;;;4993433;28;20023;-63
2021/01/25 10:48:31;;;;;;;3.80;2.38;;;;;;;;;;4995638;28;20039;-65
2021/01/25 10:50:57;;;;;;;4.28;2.78;;;;;;;;;;4996219;28;20026;-65
2021/01/25 10:53:23;;;;;;;6.05;2.60;;;;;;;;;;4991475;28;20031;-65
2021/01/25 10:55:49;;;;;;;5.75;3.75;;;;;;;;;;4987630;28;20528;-65
2021/01/25 10:58:15;;;;;;;6.60;3.95;;;;;;;;;;4986075;28;20025;-64
2021/01/25 11:00:41;;;;;;;7.93;4.25;;;;;;;;;;4995429;28;20033;-65
2021/01/25 11:03:07;;;;;;;8.25;3.65;;;;;;;;;;4985449;28;20022;-68
2021/01/25 11:05:35;;;;;;;5.55;2.50;;;;;;;;;;4980953;28;20146;-67
2021/01/25 11:08:01;;;;;;;3.85;2.50;;;;;;;;;;4986201;28;20030;-67
2021/01/25 11:10:27;;;;;;;4.40;2.60;;;;;;;;;;4985247;28;20023;-66
2021/01/25 11:12:55;;;;;;;6.70;3.58;;;;;;;;;;4984388;28;20046;-66
2021/01/25 11:15:22;;;;;;;5.30;2.97;;;;;;;;;;4985953;28;20054;-68
2021/01/25 11:17:48;;;;;;;6.13;2.83;;;;;;;;;;4983019;28;20030;-67
2021/01/25 11:20:15;;;;;;;4.00;2.58;;;;;;;;;;4985747;28;20026;-67
2021/01/25 11:22:41;;;;;;;6.07;2.45;;;;;;;;;;4985815;28;20050;-66
2021/01/25 11:25:07;;;;;;;4.75;2.72;;;;;;;;;;4984743;28;20030;-69
2021/01/25 11:27:34;;;;;;;6.25;3.00;;;;;;;;;;4993270;28;20033;-67
2021/01/25 11:30:00;;;;;;;8.50;3.40;;;;;;;;;;4995035;28;20057;-66
2021/01/25 11:32:26;;;;;;;5.53;3.35;;;;;;;;;;4995355;28;20026;-68
2021/01/25 11:34:52;;;;;;;6.57;2.78;;;;;;;;;;4995358;28;20054;-67
2021/01/25 11:37:19;;;;;;;4.32;2.70;;;;;;;;;;4990866;28;20015;-69
2021/01/25 11:39:45;;;;;;;5.13;2.65;;;;;;;;;;4976024;28;20034;-68
2021/01/25 11:42:12;;;;;;;5.15;2.40;;;;;;;;;;4991206;28;20030;-67
2021/01/25 11:44:38;;;;;;;5.20;2.72;;;;;;;;;;4986401;28;20027;-67
2021/01/25 11:47:04;;;;;;;4.95;2.88;;;;;;;;;;4981595;28;20093;-66
2021/01/25 11:49:30;;;;;;;6.63;2.78;;;;;;;;;;4982304;28;20030;-65
2021/01/25 11:51:56;;;;;;;5.28;2.55;;;;;;;;;;4994405;28;20027;-66
2021/01/25 11:54:22;;;;;;;4.50;2.50;;;;;;;;;;4994142;28;20029;-67
2021/01/25 11:56:48;;;;;;;9.05;3.03;;;;;;;;;;4994392;28;20085;-67
2021/01/25 11:59:14;;;;;;;7.72;3.80;;;;;;;;;;4994491;28;20022;-69
2021/01/25 12:01:40;;;;;;;4.53;2.17;;;;;;;;;;4993686;28;20038;-68
2021/01/25 12:04:07;;;;;;;5.03;2.45;;;;;;;;;;4960418;28;20025;-64
2021/01/25 12:06:33;;;;;;;5.30;2.50;;;;;;;;;;4974848;28;20051;-70
2021/01/25 12:08:59;;;;;;;3.40;2.30;;;;;;;;;;4974364;28;20037;-67
2021/01/25 12:11:25;;;;;;;5.60;2.65;;;;;;;;;;4957773;28;20371;-68
2021/01/25 12:13:51;;;;;;;9.30;2.88;;;;;;;;;;4975057;28;20047;-67
2021/01/25 12:16:17;;;;;;;9.30;2.38;;;;;;;;;;4973488;28;20027;-69
2021/01/25 12:18:44;;;;;;;5.65;2.22;;;;;;;;;;4974689;28;20038;-64
2021/01/25 12:21:11;;;;;;;4.13;1.88;;;;;;;;;;4974776;28;20019;-68
2021/01/25 12:23:37;;;;;;;3.60;2.03;;;;;;;;;;4974120;28;20023;-70
2021/01/25 12:26:03;;;;;;;6.15;2.00;;;;;;;;;;4974664;28;20114;-65
2021/01/25 12:28:30;;;;;;;8.85;2.55;;;;;;;;;;4973964;28;20560;-67
2021/01/25 12:30:56;;;;;;;4.18;2.35;;;;;;;;;;4974268;28;20062;-67
2021/01/25 12:33:22;;;;;;;5.38;2.58;;;;;;;;;;4974443;28;20034;-67
2021/01/25 12:35:48;;;;;;;3.85;1.90;;;;;;;;;;4971902;28;20035;-68
2021/01/25 12:38:15;;;;;;;6.40;2.03;;;;;;;;;;4972456;28;20568;-67
2021/01/25 12:40:41;;;;;;;4.10;1.80;;;;;;;;;;4974826;28;20030;-67
2021/01/25 12:43:07;;;;;;;6.72;2.17;;;;;;;;;;4974536;28;20031;-66
2021/01/25 12:45:33;;;;;;;5.78;2.17;;;;;;;;;;5069531;23;22791;-67
2021/01/25 12:47:59;;;;;;;4.97;1.95;;;;;;;;;;4952358;29;20046;-67
2021/01/25 12:50:25;;;;;;;4.70;1.80;;;;;;;;;;4955380;29;20043;-65
2021/01/25 12:52:53;;;;;;;3.38;1.80;;;;;;;;;;4954617;29;20031;-66
2021/01/25 12:55:19;;;;;;;9.00;2.53;;;;;;;;;;4955252;29;20151;-66
2021/01/25 12:57:46;;;;;;;7.88;3.50;;;;;;;;;;4954016;29;20023;-67
2021/01/25 13:00:14;;;;;;;7.97;2.88;;;;;;;;;;4954759;29;20031;-67
2021/01/25 13:02:40;;;;;;;6.95;3.13;;;;;;;;;;4954865;29;20110;-67
2021/01/25 13:05:07;;;;;;;11.30;4.43;;;;;;;;;;4954821;29;20020;-66
2021/01/25 13:07:33;;;;;;;13.63;7.80;;;;;;;;;;4953848;29;20090;-66
2021/01/25 13:09:59;;;;;;;16.02;9.13;;;;;;;;;;4954360;29;20068;-67
2021/01/25 13:12:25;;;;;;;20.88;11.93;;;;;;;;;;4954506;29;20031;-66
2021/01/25 13:14:51;;;;;;;10.27;5.50;;;;;;;;;;4936322;29;20023;-66
2021/01/25 13:17:18;;;;;;;7.93;3.53;;;;;;;;;;4951606;29;20031;-66
2021/01/25 13:19:44;;;;;;;5.97;2.63;;;;;;;;;;4955048;29;20038;-66
2021/01/25 13:22:10;;;;;;;4.18;2.53;;;;;;;;;;4954132;29;20434;-65
2021/01/25 13:24:36;;;;;;;8.57;2.70;;;;;;;;;;4954456;29;20423;-65
2021/01/25 13:27:02;;;;;;;7.50;2.70;;;;;;;;;;4954630;29;20027;-67
2021/01/25 13:29:28;;;;;;;11.38;2.22;;;;;;;;;;4954346;29;20031;-68
2021/01/25 13:31:54;;;;;;;5.55;2.67;;;;;;;;;;4954126;29;20024;-65
2021/01/25 13:34:20;;;;;;;4.97;2.35;;;;;;;;;;4954872;28;20518;-65
2021/01/25 13:36:46;;;;;;;7.47;2.53;;;;;;;;;;4957185;29;20386;-68
2021/01/25 13:39:12;;;;;;;11.38;2.30;;;;;;;;;;4957878;29;20113;-67
2021/01/25 13:41:38;;;;;;;5.55;2.35;;;;;;;;;;4958113;29;20482;-65
2021/01/25 13:44:05;;;;;;;4.68;1.95;;;;;;;;;;4958140;29;20390;-67
2021/01/25 13:46:31;;;;;;;4.68;2.15;;;;;;;;;;4957397;29;20499;-67
2021/01/25 13:48:57;;;;;;;4.13;2.28;;;;;;;;;;4958030;29;20063;-67
2021/01/25 13:51:24;;;;;;;8.52;2.47;;;;;;;;;;4957598;29;20101;-67
2021/01/25 13:53:50;;;;;;;4.68;1.90;;;;;;;;;;4956960;28;20483;-69
2021/01/25 13:56:16;;;;;;;6.57;2.20;;;;;;;;;;4957720;29;20044;-69
2021/01/25 13:58:42;;;;;;;10.00;2.95;;;;;;;;;;4957321;29;20391;-68
2021/01/25 14:01:09;;;;;;;8.63;2.63;;;;;;;;;;4958381;29;20470;-67
2021/01/25 14:03:36;;;;;;;10.10;4.15;;;;;;;;;;4958003;29;20440;-67
2021/01/25 14:06:02;;;;;;;6.10;3.05;;;;;;;;;;4956675;29;20387;-68
2021/01/25 14:08:28;;;;;;;6.68;2.63;;;;;;;;;;4940664;29;20095;-67
2021/01/25 14:10:55;;;;;;;7.60;2.28;;;;;;;;;;4957159;29;20023;-68
2021/01/25 14:13:22;;;;;;;4.63;2.40;;;;;;;;;;4957674;29;20019;-64
2021/01/25 14:15:48;;;;;;;8.23;2.55;;;;;;;;;;4957533;29;20038;-66
2021/01/25 14:18:15;;;;;;;7.00;2.03;;;;;;;;;;4957468;29;20023;-70
2021/01/25 14:20:41;;;;;;;4.25;2.00;;;;;;;;;;4957622;29;20028;-71
2021/01/25 14:23:08;;;;;;;3.53;1.88;;;;;;;;;;4957638;29;20023;-64
2021/01/25 14:25:34;;;;;;;5.10;2.22;;;;;;;;;;4957640;29;20043;-65
2021/01/25 14:28:00;;;;;;;8.48;2.15;;;;;;;;;;4957661;29;20058;-63
2021/01/25 14:30:27;;;;;;;6.32;2.50;;;;;;;;;;4957206;29;20031;-64
2021/01/25 14:32:53;;;;;;;12.25;5.28;;;;;;;;;;4957271;29;20138;-63
2021/01/25 14:35:19;;;;;;;40.88;13.60;;;;;;;;;;4957565;29;20027;-64
2021/01/25 14:37:45;;;;;;;26.85;10.77;;;;;;;;;;4957503;29;20222;-64
2021/01/25 14:40:15;;;;;;;28.55;10.90;;;;;;;;;;4957095;29;20508;-64
2021/01/25 14:42:42;;;;;;;23.17;9.88;;;;;;;;;;4957786;29;20046;-63
2021/01/25 14:45:08;;;;;;;13.25;6.45;;;;;;;;;;4956935;29;20479;-63
2021/01/25 14:47:34;;;;;;;12.18;6.05;;;;;;;;;;4957651;28;20509;-66
2021/01/25 14:50:00;;;;;;;18.95;8.05;;;;;;;;;;4957350;29;20071;-64
2021/01/25 14:52:26;;;;;;;52.75;28.77;;;;;;;;;;4957124;29;20034;-67
2021/01/25 14:54:54;;;;;;;39.08;17.30;;;;;;;;;;4957814;29;20043;-64
2021/01/25 14:57:20;;;;;;;30.10;13.00;;;;;;;;;;4957247;29;20029;-64
2021/01/25 14:59:46;;;;;;;20.88;10.70;;;;;;;;;;4956811;29;20036;-64
2021/01/25 15:02:13;;;;;;;33.78;14.13;;;;;;;;;;4957508;29;20114;-64
2021/01/25 15:04:39;;;;;;;43.00;16.33;;;;;;;;;;4957329;29;20085;-63
2021/01/25 15:07:06;;;;;;;36.78;11.30;;;;;;;;;;4956902;29;20027;-65
2021/01/25 15:09:33;;;;;;;19.02;8.50;;;;;;;;;;4956795;29;20482;-65
2021/01/25 15:11:59;;;;;;;22.60;8.07;;;;;;;;;;4939060;29;20351;-64
2021/01/25 15:14:25;;;;;;;17.67;6.03;;;;;;;;;;4956958;29;20027;-64
2021/01/25 15:16:51;;;;;;;45.78;21.30;;;;;;;;;;4957172;29;20031;-64
2021/01/25 15:19:19;;;;;;;51.72;26.63;;;;;;;;;;4956563;29;20114;-64
2021/01/25 15:21:46;;;;;;;48.55;24.20;;;;;;;;;;4956877;29;20130;-64
2021/01/25 15:24:12;;;;;;;53.72;26.02;;;;;;;;;;4956990;29;20102;-64
2021/01/25 15:26:38;;;;;;;48.75;19.27;;;;;;;;;;4956534;29;20502;-64
2021/01/25 15:29:04;;;;;;;30.08;15.30;;;;;;;;;;4956495;29;20035;-64
2021/01/25 15:31:31;;;;;;;38.85;16.23;;;;;;;;;;4956923;29;20031;-65
2021/01/25 15:33:57;;;;;;;37.97;13.75;;;;;;;;;;4957026;29;20027;-65
2021/01/25 15:36:23;;;;;;;24.60;11.23;;;;;;;;;;4957120;29;20027;-64
2021/01/25 15:38:49;;;;;;;41.00;15.50;;;;;;;;;;4952999;29;20038;-64
2021/01/25 15:41:16;;;;;;;62.60;23.42;;;;;;;;;;4956146;29;20034;-63
2021/01/25 15:43:42;;;;;;;54.63;22.67;;;;;;;;;;4954739;28;20027;-67
2021/01/25 15:46:08;;;;;;;67.38;31.15;;;;;;;;;;4955708;29;20094;-64
2021/01/25 15:48:34;;;;;;;73.60;33.17;;;;;;;;;;4955837;29;20471;-64
2021/01/25 15:51:00;;;;;;;71.60;32.95;;;;;;;;;;4955016;29;20471;-66
2021/01/25 15:53:26;;;;;;;84.50;38.72;;;;;;;;;;4955488;29;20038;-66
2021/01/25 15:55:52;;;;;;;103.88;47.65;;;;;;;;;;4955113;29;20027;-63
2021/01/25 15:58:18;;;;;;;95.53;41.40;;;;;;;;;;4937550;29;20026;-65
2021/01/25 16:00:44;;;;;;;102.78;45.13;;;;;;;;;;4953236;29;20086;-66
2021/01/25 16:03:11;;;;;;;107.28;45.80;;;;;;;;;;4953123;29;20023;-64
2021/01/25 16:05:37;;;;;;;105.13;42.28;;;;;;;;;;4955538;29;20117;-65
2021/01/25 16:08:03;;;;;;;88.13;37.97;;;;;;;;;;4952405;29;20083;-64
2021/01/25 16:10:29;;;;;;;90.78;40.58;;;;;;;;;;4954671;29;20035;-63
2021/01/25 16:12:56;;;;;;;75.80;34.25;;;;;;;;;;4955366;29;20023;-66
2021/01/25 16:15:22;;;;;;;68.18;31.85;;;;;;;;;;4955271;29;20035;-64
2021/01/25 16:17:48;;;;;;;85.75;37.97;;;;;;;;;;4954826;29;20483;-63
2021/01/25 16:20:16;;;;;;;92.28;41.70;;;;;;;;;;4955211;29;20058;-64
2021/01/25 16:22:42;;;;;;;97.38;43.38;;;;;;;;;;4955093;29;20074;-63
2021/01/25 16:25:09;;;;;;;92.25;42.90;;;;;;;;;;4955020;29;20485;-64
2021/01/25 16:27:35;;;;;;;92.55;43.08;;;;;;;;;;4955911;29;20035;-63
2021/01/25 16:30:01;;;;;;;98.88;41.70;;;;;;;;;;4954585;29;20114;-64
2021/01/25 16:32:27;;;;;;;90.55;39.05;;;;;;;;;;4955151;29;20482;-63
2021/01/25 16:34:54;;;;;;;80.90;36.88;;;;;;;;;;4954161;29;20028;-63
2021/01/25 16:37:21;;;;;;;75.97;34.08;;;;;;;;;;4954868;29;20402;-63
2021/01/25 16:39:47;;;;;;;74.55;31.50;;;;;;;;;;4954862;29;20466;-63
2021/01/25 16:42:13;;;;;;;72.90;30.38;;;;;;;;;;4955100;29;20481;-63
2021/01/25 16:44:39;;;;;;;65.65;28.48;;;;;;;;;;4954781;29;20102;-64
2021/01/25 16:47:05;;;;;;;61.42;28.63;;;;;;;;;;4954945;29;20134;-63
2021/01/25 16:49:34;;;;;;;66.72;29.40;;;;;;;;;;4954769;29;20372;-63
2021/01/25 16:52:00;;;;;;;68.35;30.63;;;;;;;;;;4946780;29;20050;-63
2021/01/25 16:54:26;;;;;;;62.28;29.58;;;;;;;;;;4954773;29;20031;-62
2021/01/25 16:56:52;;;;;;;60.15;27.65;;;;;;;;;;4954787;29;20423;-62
2021/01/25 16:59:19;;;;;;;60.97;28.90;;;;;;;;;;4954143;29;20467;-63
2021/01/25 17:01:45;;;;;;;61.45;28.58;;;;;;;;;;4955473;29;20023;-63
2021/01/25 17:04:11;;;;;;;73.82;32.78;;;;;;;;;;4955488;29;20106;-62
2021/01/25 17:06:38;;;;;;;70.68;33.63;;;;;;;;;;4954553;29;20023;-62
2021/01/25 17:09:04;;;;;;;74.50;34.25;;;;;;;;;;4954487;28;20035;-62
2021/01/25 17:11:30;;;;;;;79.60;34.35;;;;;;;;;;4957574;29;20434;-63
2021/01/25 17:13:56;;;;;;;77.78;36.55;;;;;;;;;;4959053;29;20019;-62
2021/01/25 17:16:22;;;;;;;86.93;39.83;;;;;;;;;;4958945;29;20086;-63
2021/01/25 17:18:48;;;;;;;89.63;41.47;;;;;;;;;;4959095;28;20364;-62
2021/01/25 17:21:15;;;;;;;92.70;43.15;;;;;;;;;;4958848;29;20058;-62
2021/01/25 17:23:41;;;;;;;91.13;44.72;;;;;;;;;;4958769;29;20028;-63
2021/01/25 17:26:07;;;;;;;98.63;45.70;;;;;;;;;;4958460;29;20150;-63
2021/01/25 17:28:33;;;;;;;95.50;43.63;;;;;;;;;;4958597;29;20023;-63
2021/01/25 17:30:59;;;;;;;94.15;39.50;;;;;;;;;;4958238;29;20026;-63
2021/01/25 17:33:31;;;;;;;89.50;39.40;;;;;;;;;;4958268;29;20082;-63
2021/01/25 17:35:58;;;;;;;82.13;39.75;;;;;;;;;;4958560;29;20110;-63
2021/01/25 17:38:24;;;;;;;78.63;35.15;;;;;;;;;;4941400;29;20387;-63
2021/01/25 17:40:55;;;;;;;71.05;31.13;;;;;;;;;;4958356;29;20045;-63
2021/01/25 17:43:21;;;;;;;64.87;30.80;;;;;;;;;;4956613;29;20032;-63
2021/01/25 17:45:48;;;;;;;62.60;29.20;;;;;;;;;;4958546;28;20857;-63
2021/01/25 17:48:16;;;;;;;65.53;30.95;;;;;;;;;;4958211;29;20028;-63
2021/01/25 17:50:42;;;;;;;58.17;27.83;;;;;;;;;;4958672;29;20093;-65
2021/01/25 17:53:09;;;;;;;58.97;28.23;;;;;;;;;;4958420;28;20035;-65
2021/01/25 17:55:35;;;;;;;57.17;27.63;;;;;;;;;;4957922;29;20019;-66
2021/01/25 17:58:01;;;;;;;60.42;27.92;;;;;;;;;;4953391;29;20034;-65
2021/01/25 18:00:27;;;;;;;48.45;25.20;;;;;;;;;;4954849;28;20058;-64
2021/01/25 18:02:54;;;;;;;52.65;25.75;;;;;;;;;;4954860;28;20110;-66
2021/01/25 18:05:23;;;;;;;51.10;26.05;;;;;;;;;;4960071;28;20419;-67
2021/01/25 18:07:49;;;;;;;50.38;25.23;;;;;;;;;;4957777;29;20028;-66
2021/01/25 18:10:16;;;;;;;53.78;25.63;;;;;;;;;;4957610;29;20676;-65
2021/01/25 18:12:42;;;;;;;49.70;25.00;;;;;;;;;;4958125;29;20391;-66
2021/01/25 18:15:09;;;;;;;50.35;22.90;;;;;;;;;;4957368;29;20027;-64
2021/01/25 18:17:35;;;;;;;46.67;22.88;;;;;;;;;;4957168;29;20030;-65
2021/01/25 18:20:02;;;;;;;46.95;23.83;;;;;;;;;;4959390;28;20031;-65
2021/01/25 18:22:28;;;;;;;45.75;22.02;;;;;;;;;;4958212;28;20031;-67
2021/01/25 18:24:54;;;;;;;49.30;22.77;;;;;;;;;;4957271;29;20136;-65
2021/01/25 18:27:20;;;;;;;49.17;23.13;;;;;;;;;;4957724;29;20030;-64
2021/01/25 18:29:47;;;;;;;51.72;24.00;;;;;;;;;;4956397;28;20484;-68
2021/01/25 18:32:13;;;;;;;49.65;25.25;;;;;;;;;;4961365;28;20047;-66
2021/01/25 18:34:40;;;;;;;56.83;26.55;;;;;;;;;;4956486;29;20027;-65
2021/01/25 18:37:06;;;;;;;58.50;27.08;;;;;;;;;;4956519;29;20102;-66
2021/01/25 18:39:33;;;;;;;64.47;29.58;;;;;;;;;;4957052;29;20534;-66
2021/01/25 18:41:59;;;;;;;60.65;29.33;;;;;;;;;;4956529;29;20058;-65
2021/01/25 18:44:25;;;;;;;54.47;27.10;;;;;;;;;;4957229;29;20098;-65
2021/01/25 18:46:51;;;;;;;49.35;24.98;;;;;;;;;;4939550;29;20058;-63
2021/01/25 18:49:18;;;;;;;44.47;21.77;;;;;;;;;;4964007;28;20031;-66
2021/01/25 18:51:44;;;;;;;42.15;20.17;;;;;;;;;;4961484;28;20019;-67
2021/01/25 18:54:10;;;;;;;30.95;14.50;;;;;;;;;;4956652;29;20023;-65
2021/01/25 18:56:36;;;;;;;21.67;10.68;;;;;;;;;;4957279;29;20064;-66
2021/01/25 18:59:02;;;;;;;12.80;6.78;;;;;;;;;;4956955;28;20098;-67
2021/01/25 19:04:32;;;;;;;16.55;8.63;;;;;;;;;;4959126;28;20042;-65
2021/01/25 19:06:58;;;;;;;21.85;9.70;;;;;;;;;;4965459;28;20094;-66
2021/01/25 19:09:24;;;;;;;21.17;9.48;;;;;;;;;;4965754;28;20105;-65
2021/01/25 19:11:50;;;;;;;16.08;8.40;;;;;;;;;;4967187;28;20466;-64
2021/01/25 19:14:18;;;;;;;13.43;6.97;;;;;;;;;;4976170;28;20031;-62
2021/01/25 19:16:45;;;;;;;13.18;6.70;;;;;;;;;;4976379;28;20027;-62
2021/01/25 19:19:11;;;;;;;14.45;7.28;;;;;;;;;;4976596;28;20058;-63
2021/01/25 19:21:37;;;;;;;15.02;8.18;;;;;;;;;;4976350;28;20122;-64
2021/01/25 19:24:03;;;;;;;19.60;9.25;;;;;;;;;;4973490;28;20073;-65
2021/01/25 19:26:30;;;;;;;17.30;9.10;;;;;;;;;;4971205;28;20046;-64
2021/01/25 19:28:56;;;;;;;19.33;9.35;;;;;;;;;;4956948;28;20035;-66
2021/01/25 19:31:22;;;;;;;21.42;10.35;;;;;;;;;;4956283;29;20154;-64
2021/01/25 19:33:48;;;;;;;23.67;10.60;;;;;;;;;;4955883;28;20023;-64
2021/01/25 19:36:14;;;;;;;22.15;11.32;;;;;;;;;;4956398;29;20034;-64
2021/01/25 19:38:43;;;;;;;22.80;11.85;;;;;;;;;;4967525;28;20121;-64
2021/01/25 19:41:09;;;;;;;23.98;11.55;;;;;;;;;;4969221;28;20458;-66
2021/01/25 19:43:35;;;;;;;24.85;12.45;;;;;;;;;;4975726;28;20096;-65
2021/01/25 19:46:01;;;;;;;28.27;13.52;;;;;;;;;;4971953;28;20077;-65
2021/01/25 19:48:28;;;;;;;31.25;15.48;;;;;;;;;;4958454;28;20023;-66
2021/01/25 19:50:54;;;;;;;31.98;15.32;;;;;;;;;;4958527;28;20035;-64
2021/01/25 19:53:21;;;;;;;31.40;16.10;;;;;;;;;;4956160;29;20034;-63
2021/01/25 19:55:48;;;;;;;26.60;13.95;;;;;;;;;;4956452;29;20028;-64
2021/01/25 19:58:15;;;;;;;24.15;12.55;;;;;;;;;;4956177;29;20028;-64
2021/01/25 20:00:42;;;;;;;23.20;12.05;;;;;;;;;;4955335;29;20027;-64
2021/01/25 20:03:09;;;;;;;21.27;12.45;;;;;;;;;;4956183;29;20078;-62
2021/01/25 20:05:35;;;;;;;24.05;12.15;;;;;;;;;;4956204;29;20348;-64
2021/01/25 20:08:02;;;;;;;28.77;12.50;;;;;;;;;;4955479;29;20074;-63
2021/01/25 20:10:30;;;;;;;25.42;13.20;;;;;;;;;;4955845;29;20031;-64
2021/01/25 20:12:56;;;;;;;25.00;12.40;;;;;;;;;;4955249;28;20067;-66
2021/01/25 20:15:24;;;;;;;23.75;11.60;;;;;;;;;;4940507;28;20034;-66
2021/01/25 20:17:51;;;;;;;22.33;12.18;;;;;;;;;;4964727;28;20063;-67
2021/01/25 20:20:18;;;;;;;19.05;11.43;;;;;;;;;;4951565;28;20114;-67
2021/01/25 20:22:48;;;;;;;24.65;11.57;;;;;;;;;;4958767;28;20484;-67
2021/01/25 20:25:18;;;;;;;14.20;8.57;;;;;;;;;;4952822;28;20059;-67
2021/01/25 20:27:45;;;;;;;24.20;13.25;;;;;;;;;;4954364;29;20039;-67
2021/01/25 20:30:16;;;;;;;24.50;13.68;;;;;;;;;;4955143;29;20023;-67
2021/01/25 20:32:44;;;;;;;23.70;14.03;;;;;;;;;;4955463;29;20479;-65
2021/01/25 20:35:17;;;;;;;28.05;14.82;;;;;;;;;;4954707;28;20245;-65
2021/01/25 20:37:44;;;;;;;27.83;14.85;;;;;;;;;;4956223;28;20023;-66